createdAt,value
2022-10-07T00:00:37.889Z,70.07
2022-10-07T00:02:00.830Z,70.20
2022-10-07T00:03:04.033Z,70.23
2022-10-07T00:04:06.967Z,70.15
2022-10-07T00:05:10.494Z,70.14
2022-10-07T00:06:16.268Z,70.17
2022-10-07T00:07:19.334Z,70.19
2022-10-07T00:08:22.635Z,70.17
2022-10-07T00:09:25.692Z,70.26
2022-10-07T00:10:29.727Z,70.23
2022-10-07T00:11:33.053Z,70.31
2022-10-07T00:12:36.054Z,70.29
2022-10-07T00:13:41.035Z,70.27
2022-10-07T00:14:44.158Z,70.40
2022-10-07T00:15:47.099Z,70.23
2022-10-07T00:16:50.142Z,70.31
2022-10-07T00:17:53.432Z,70.21
2022-10-07T00:18:58.670Z,70.39
2022-10-07T00:20:01.722Z,70.22
2022-10-07T00:21:12.089Z,70.24
2022-10-07T00:22:15.210Z,70.47
2022-10-07T00:23:18.173Z,70.56
2022-10-07T00:24:21.390Z,70.29
2022-10-07T00:25:26.004Z,70.31
2022-10-07T00:26:31.274Z,70.48
2022-10-07T00:27:34.226Z,70.53
2022-10-07T00:28:37.364Z,70.39
2022-10-07T00:29:40.477Z,70.51
2022-10-07T00:30:44.643Z,70.47
2022-10-07T00:31:47.779Z,70.69
2022-10-07T00:32:50.735Z,70.57
2022-10-07T00:33:55.287Z,70.55
2022-10-07T00:34:58.626Z,70.57
2022-10-07T00:36:06.043Z,70.59
2022-10-07T00:37:09.245Z,70.71
2022-10-07T00:38:13.672Z,70.64
2022-10-07T00:39:17.832Z,70.72
2022-10-07T00:40:22.835Z,70.58
2022-10-07T00:41:33.013Z,70.71
2022-10-07T00:42:36.789Z,70.61
2022-10-07T00:43:40.024Z,70.89
2022-10-07T00:44:48.638Z,70.88
2022-10-07T00:45:54.011Z,70.85
2022-10-07T00:47:03.721Z,70.87
2022-10-07T00:48:08.677Z,70.69
2022-10-07T00:49:14.144Z,71.03
2022-10-07T00:50:26.024Z,70.84
2022-10-07T00:51:31.631Z,70.85
2022-10-07T00:52:40.473Z,70.91
2022-10-07T00:53:46.854Z,70.98
2022-10-07T00:54:53.477Z,70.96
2022-10-07T00:56:02.042Z,71.11
2022-10-07T00:57:05.341Z,71.10
2022-10-07T00:58:09.879Z,71.12
2022-10-07T00:59:15.723Z,70.96
2022-10-07T01:00:21.999Z,71.05
2022-10-07T01:01:26.537Z,71.12
2022-10-07T01:02:30.269Z,71.18
2022-10-07T01:03:36.271Z,71.08
2022-10-07T01:04:40.257Z,71.33
2022-10-07T01:05:43.937Z,71.44
2022-10-07T01:06:47.149Z,71.28
2022-10-07T01:07:50.883Z,71.35
2022-10-07T01:08:54.621Z,71.43
2022-10-07T01:10:00.757Z,71.27
2022-10-07T01:11:19.480Z,71.49
2022-10-07T01:12:40.252Z,71.43
2022-10-07T01:13:49.243Z,71.49
2022-10-07T01:14:57.996Z,71.42
2022-10-07T01:16:16.954Z,71.61
2022-10-07T01:17:27.832Z,71.60
2022-10-07T01:18:42.191Z,71.65
2022-10-07T01:20:11.695Z,71.69
2022-10-07T01:21:52.713Z,71.82
2022-10-07T01:23:15.070Z,71.48
2022-10-07T01:24:39.016Z,71.92
2022-10-07T01:26:00.865Z,71.97
2022-10-07T01:27:24.391Z,71.76
2022-10-07T01:28:52.858Z,71.78
2022-10-07T01:30:04.018Z,72.06
2022-10-07T01:33:19.113Z,72.05
2022-10-07T01:34:26.633Z,72.25
2022-10-07T01:35:35.189Z,72.32
2022-10-07T01:36:39.964Z,72.25
2022-10-07T01:37:48.683Z,72.25
2022-10-07T01:38:57.090Z,72.29
2022-10-07T01:40:08.064Z,72.44
2022-10-07T01:41:16.379Z,72.19
2022-10-07T01:42:21.181Z,72.36
2022-10-07T01:43:26.510Z,72.39
2022-10-07T01:44:30.291Z,72.49
2022-10-07T01:45:40.207Z,72.38
2022-10-07T01:46:43.789Z,72.34
2022-10-07T01:47:48.765Z,72.28
2022-10-07T01:48:52.451Z,72.53
2022-10-07T01:49:55.744Z,72.69
2022-10-07T01:51:02.198Z,72.41
2022-10-07T01:52:31.352Z,72.57
2022-10-07T01:53:51.328Z,72.56
2022-10-07T01:55:16.967Z,72.74
2022-10-07T01:56:20.582Z,72.37
2022-10-07T01:57:35.313Z,72.61
2022-10-07T01:58:56.670Z,72.66
2022-10-07T02:00:02.436Z,72.46
2022-10-07T02:01:48.699Z,72.54
2022-10-07T02:03:04.928Z,72.69
2022-10-07T02:04:31.084Z,72.42
2022-10-07T02:05:51.338Z,72.44
2022-10-07T02:07:14.884Z,72.58
2022-10-07T02:08:23.991Z,72.64
2022-10-07T02:09:39.802Z,72.74
2022-10-07T02:11:15.003Z,72.66
2022-10-07T02:12:29.225Z,72.81
2022-10-07T02:13:47.289Z,72.65
2022-10-07T02:14:57.107Z,72.85
2022-10-07T02:16:05.632Z,72.62
2022-10-07T02:17:15.319Z,72.73
2022-10-07T02:18:20.453Z,72.82
2022-10-07T02:19:28.545Z,72.89
2022-10-07T02:20:36.952Z,72.79
2022-10-07T02:21:43.242Z,73.06
2022-10-07T02:22:48.326Z,72.77
2022-10-07T02:23:54.787Z,72.88
2022-10-07T02:24:59.708Z,72.69
2022-10-07T02:26:06.270Z,72.85
2022-10-07T02:27:13.938Z,72.74
2022-10-07T02:28:21.702Z,72.88
2022-10-07T02:29:27.591Z,72.76
2022-10-07T02:30:35.532Z,72.83
2022-10-07T02:31:41.474Z,72.88
2022-10-07T02:32:48.445Z,72.97
2022-10-07T02:33:54.158Z,72.90
2022-10-07T02:35:01.188Z,73.05
2022-10-07T02:36:11.123Z,73.10
2022-10-07T02:37:19.711Z,73.12
2022-10-07T02:38:25.612Z,73.08
2022-10-07T02:39:29.071Z,73.02
2022-10-07T02:40:50.895Z,73.04
2022-10-07T02:42:52.656Z,73.01
2022-10-07T02:44:04.671Z,72.99
2022-10-07T02:45:16.249Z,73.22
2022-10-07T02:46:26.504Z,73.22
2022-10-07T02:47:51.152Z,72.85
2022-10-07T02:49:05.141Z,72.97
2022-10-07T02:50:14.935Z,73.32
2022-10-07T02:51:22.629Z,73.03
2022-10-07T02:52:31.322Z,73.10
2022-10-07T02:53:37.709Z,73.50
2022-10-07T02:54:48.790Z,73.18
2022-10-07T02:55:54.455Z,73.14
2022-10-07T02:57:00.337Z,73.53
2022-10-07T02:58:08.301Z,73.27
2022-10-07T02:59:15.079Z,73.46
2022-10-07T03:00:19.771Z,73.60
2022-10-07T03:01:32.163Z,73.63
2022-10-07T03:02:42.433Z,73.46
2022-10-07T03:03:46.019Z,73.32
2022-10-07T03:04:49.365Z,73.55
2022-10-07T03:05:52.804Z,73.68
2022-10-07T03:06:56.312Z,73.62
2022-10-07T03:08:03.271Z,73.50
2022-10-07T03:09:09.780Z,73.61
2022-10-07T03:10:13.867Z,73.48
2022-10-07T03:11:17.011Z,73.53
2022-10-07T03:12:20.045Z,73.46
2022-10-07T03:13:24.816Z,73.94
2022-10-07T03:14:31.073Z,73.64
2022-10-07T03:15:41.924Z,73.60
2022-10-07T03:16:46.389Z,73.78
2022-10-07T03:17:49.848Z,73.81
2022-10-07T03:18:54.269Z,73.77
2022-10-07T03:20:03.505Z,73.73
2022-10-07T03:21:08.673Z,73.71
2022-10-07T03:22:12.360Z,73.78
2022-10-07T03:23:16.189Z,73.45
2022-10-07T03:24:19.199Z,73.55
2022-10-07T03:25:43.556Z,73.36
2022-10-07T03:26:47.089Z,73.19
2022-10-07T03:27:50.266Z,73.32
2022-10-07T03:28:53.640Z,73.69
2022-10-07T03:29:58.645Z,73.49
2022-10-07T03:31:10.848Z,73.45
2022-10-07T03:32:17.477Z,73.65
2022-10-07T03:33:26.376Z,73.87
2022-10-07T03:34:31.703Z,73.71
2022-10-07T03:35:35.047Z,73.68
2022-10-07T03:36:39.334Z,73.89
2022-10-07T03:37:43.416Z,73.95
2022-10-07T03:38:46.683Z,73.90
2022-10-07T03:39:52.256Z,73.61
2022-10-07T03:40:55.383Z,73.86
2022-10-07T04:46:41.841Z,79.13
2022-10-07T04:48:17.212Z,79.25
2022-10-07T04:49:53.119Z,79.41
2022-10-07T05:00:34.101Z,80.36
2022-10-07T14:37:10.262Z,37.70
2022-10-07T14:38:27.913Z,38.00
2022-10-07T14:39:35.872Z,38.15
2022-10-07T14:40:39.081Z,38.49
2022-10-07T14:41:42.016Z,38.63
2022-10-07T14:42:45.592Z,38.76
2022-10-07T14:43:52.127Z,39.10
2022-10-07T14:44:57.100Z,39.28
2022-10-07T14:46:21.305Z,39.72
2022-10-07T14:47:28.176Z,39.72
2022-10-07T14:48:32.156Z,40.03
2022-10-07T14:49:35.671Z,40.13
2022-10-07T14:50:39.710Z,40.44
2022-10-07T14:51:44.213Z,40.59
2022-10-07T14:52:51.894Z,40.75
2022-10-07T14:54:02.380Z,41.09
2022-10-07T14:55:17.092Z,41.07
2022-10-07T14:56:33.338Z,41.30
2022-10-07T14:57:36.351Z,41.61
2022-10-07T14:58:39.502Z,41.53
2022-10-07T14:59:42.739Z,41.80
2022-10-07T15:00:45.963Z,42.06
2022-10-07T15:01:49.838Z,42.08
2022-10-07T15:02:54.649Z,42.24
2022-10-07T15:03:58.523Z,42.39
2022-10-07T15:05:01.948Z,42.54
2022-10-07T15:06:06.684Z,42.62
2022-10-07T15:07:10.886Z,42.88
2022-10-07T15:08:14.589Z,42.77
2022-10-07T15:09:18.489Z,42.96
2022-10-07T15:10:25.362Z,43.15
2022-10-07T15:11:29.150Z,43.22
2022-10-07T15:12:33.152Z,43.35
2022-10-07T15:13:36.051Z,43.42
2022-10-07T15:14:38.945Z,43.63
2022-10-07T15:15:47.016Z,43.84
2022-10-07T15:16:50.484Z,44.01
2022-10-07T15:17:53.679Z,44.10
2022-10-07T15:18:56.843Z,44.08
2022-10-07T15:20:00.024Z,44.26
2022-10-07T15:21:03.574Z,44.35
2022-10-07T15:22:07.010Z,44.45
2022-10-07T15:23:10.181Z,44.53
2022-10-07T15:24:13.316Z,44.64
2022-10-07T15:25:18.059Z,44.74
2022-10-07T15:26:24.435Z,44.84
2022-10-07T15:27:27.689Z,44.95
2022-10-07T15:28:32.475Z,44.98
2022-10-07T15:29:35.500Z,45.06
2022-10-07T15:30:39.513Z,45.28
2022-10-07T15:31:43.308Z,45.37
2022-10-07T15:32:46.465Z,45.39
2022-10-07T15:33:50.351Z,45.53
2022-10-07T15:34:54.221Z,45.70
2022-10-07T15:35:58.690Z,45.64
2022-10-07T15:37:01.995Z,45.75
2022-10-07T15:38:05.136Z,45.83
2022-10-07T15:39:10.116Z,45.99
2022-10-07T15:40:13.514Z,46.04
2022-10-07T15:41:42.855Z,46.15
2022-10-07T15:42:46.388Z,46.23
2022-10-07T15:43:49.731Z,46.36
2022-10-07T15:44:53.464Z,46.36
2022-10-07T15:45:58.879Z,46.46
2022-10-07T15:47:02.452Z,46.59
2022-10-07T15:48:05.763Z,46.66
2022-10-07T15:49:08.936Z,46.78
2022-10-07T15:50:11.885Z,46.93
2022-10-07T15:51:15.211Z,46.88
2022-10-07T15:52:18.135Z,47.00
2022-10-07T15:53:23.144Z,47.02
2022-10-07T15:54:26.289Z,47.20
2022-10-07T15:55:29.310Z,47.27
2022-10-07T15:56:32.953Z,47.36
2022-10-07T15:57:35.907Z,47.51
2022-10-07T15:58:38.960Z,47.50
2022-10-07T15:59:42.327Z,47.67
2022-10-07T16:00:59.888Z,47.71
2022-10-07T16:02:04.465Z,47.75
2022-10-07T16:03:08.078Z,48.00
2022-10-07T16:04:13.160Z,48.10
2022-10-07T16:05:16.348Z,48.08
2022-10-07T16:06:24.714Z,48.11
2022-10-07T16:07:30.261Z,48.21
2022-10-07T16:08:33.289Z,48.38
2022-10-07T16:09:36.239Z,48.40
2022-10-07T16:10:39.489Z,48.60
2022-10-07T16:11:42.460Z,48.68
2022-10-07T16:12:45.612Z,48.72
2022-10-07T16:13:49.165Z,48.84
2022-10-07T16:14:52.199Z,48.99
2022-10-07T16:16:02.850Z,49.11
2022-10-07T16:17:06.140Z,49.10
2022-10-07T16:18:09.162Z,49.43
2022-10-07T16:19:12.309Z,49.49
2022-10-07T16:20:17.794Z,49.52
2022-10-07T16:21:32.883Z,49.66
2022-10-07T16:22:36.505Z,49.67
2022-10-07T16:23:42.104Z,49.87
2022-10-07T16:24:45.639Z,49.89
2022-10-07T16:25:48.612Z,50.05
2022-10-07T16:26:51.793Z,50.06
2022-10-07T16:28:13.191Z,50.32
2022-10-07T16:29:37.529Z,50.30
2022-10-07T16:30:49.176Z,50.39
2022-10-07T16:31:58.192Z,50.55
2022-10-07T16:33:01.973Z,50.77
2022-10-07T16:34:05.041Z,50.63
2022-10-07T16:35:09.629Z,50.77
2022-10-07T16:36:13.677Z,51.09
2022-10-07T16:37:16.841Z,50.94
2022-10-07T16:38:20.836Z,51.00
2022-10-07T16:39:24.588Z,51.08
2022-10-07T16:40:27.855Z,51.20
2022-10-07T16:41:32.604Z,51.36
2022-10-07T16:42:35.643Z,51.49
2022-10-07T16:43:38.771Z,51.55
2022-10-07T16:44:41.714Z,51.50
2022-10-07T16:45:44.716Z,51.70
2022-10-07T16:46:49.023Z,51.76
2022-10-07T16:47:52.223Z,51.67
2022-10-07T16:48:55.539Z,52.02
2022-10-07T16:49:58.400Z,51.98
2022-10-07T16:51:01.453Z,52.05
2022-10-07T16:52:04.592Z,52.14
2022-10-07T16:53:07.609Z,52.23
2022-10-07T16:54:13.276Z,52.28
2022-10-07T16:55:18.117Z,52.36
2022-10-07T16:56:22.568Z,52.57
2022-10-07T16:57:25.595Z,52.60
2022-10-07T16:58:28.837Z,52.82
2022-10-07T16:59:31.908Z,52.78
2022-10-07T17:00:35.403Z,53.01
2022-10-07T17:01:39.323Z,52.92
2022-10-07T17:02:42.618Z,52.71
2022-10-07T17:03:49.928Z,52.91
2022-10-07T17:04:53.095Z,53.11
2022-10-07T17:05:59.631Z,53.23
2022-10-07T17:07:03.635Z,53.19
2022-10-07T17:08:06.822Z,53.61
2022-10-07T17:09:10.072Z,53.33
2022-10-07T17:10:13.304Z,53.65
2022-10-07T17:11:29.358Z,53.68
2022-10-07T17:12:32.314Z,53.73
2022-10-07T17:13:38.038Z,53.74
2022-10-07T17:14:43.304Z,53.72
2022-10-07T17:15:52.414Z,53.81
2022-10-07T17:16:57.387Z,53.98
2022-10-07T17:18:00.328Z,53.86
2022-10-07T17:19:06.387Z,54.09
2022-10-07T17:20:10.250Z,54.14
2022-10-07T17:21:13.521Z,54.04
2022-10-07T17:22:16.705Z,54.30
2022-10-07T17:23:27.111Z,54.10
2022-10-07T17:24:30.991Z,54.28
2022-10-07T17:25:38.032Z,54.34
2022-10-07T17:26:44.130Z,54.62
2022-10-07T17:27:48.662Z,54.75
2022-10-07T17:28:57.643Z,54.74
2022-10-07T17:30:01.143Z,54.89
2022-10-07T17:31:11.043Z,54.62
2022-10-07T17:32:14.539Z,54.88
2022-10-07T17:33:17.524Z,54.85
2022-10-07T17:34:22.027Z,54.93
2022-10-07T17:35:25.508Z,55.09
2022-10-07T17:36:29.112Z,55.08
2022-10-07T17:37:32.368Z,55.26
2022-10-07T17:38:43.917Z,55.25
2022-10-07T17:39:48.176Z,55.24
2022-10-07T17:40:51.277Z,55.40
2022-10-07T17:41:54.362Z,55.39
2022-10-07T17:42:59.686Z,55.58
2022-10-07T17:44:08.256Z,55.55
2022-10-07T17:45:11.390Z,55.57
2022-10-07T17:46:17.445Z,55.71
2022-10-07T17:47:44.100Z,55.66
2022-10-07T17:48:50.399Z,56.10
2022-10-07T17:49:54.365Z,55.93
2022-10-07T17:51:02.567Z,55.96
2022-10-07T17:52:27.625Z,56.17
2022-10-07T17:53:39.570Z,56.20
2022-10-07T17:54:42.869Z,56.33
2022-10-07T17:55:52.106Z,56.43
2022-10-07T17:56:55.086Z,56.40
2022-10-07T17:57:58.070Z,56.43
2022-10-07T17:59:01.782Z,56.47
2022-10-07T18:00:07.146Z,56.57
2022-10-07T18:01:29.889Z,56.55
2022-10-07T18:02:34.130Z,56.70
2022-10-07T18:03:38.277Z,56.68
2022-10-07T18:04:41.485Z,56.61
2022-10-07T18:05:53.843Z,56.95
2022-10-07T18:06:58.221Z,56.97
2022-10-07T18:08:04.300Z,56.95
2022-10-07T18:09:09.880Z,56.98
2022-10-07T18:10:13.667Z,57.19
2022-10-07T18:11:17.602Z,57.14
2022-10-07T18:12:40.338Z,57.13
2022-10-07T18:14:09.380Z,57.40
2022-10-07T18:15:25.138Z,57.38
2022-10-07T18:16:32.300Z,57.26
2022-10-07T18:17:36.830Z,57.43
2022-10-07T18:18:41.350Z,57.50
2022-10-07T18:19:45.145Z,57.49
2022-10-07T18:20:48.223Z,57.59
2022-10-07T18:21:51.429Z,57.72
2022-10-07T18:22:57.715Z,57.69
2022-10-07T18:24:00.843Z,57.58
2022-10-07T18:25:05.219Z,57.85
2022-10-07T18:26:10.387Z,57.85
2022-10-07T18:27:13.628Z,58.02
2022-10-07T18:28:17.106Z,57.92
2022-10-07T18:29:20.291Z,57.96
2022-10-07T18:30:23.362Z,58.25
2022-10-07T18:31:27.403Z,57.92
2022-10-07T18:32:31.164Z,58.05
2022-10-07T18:33:36.293Z,58.11
2022-10-07T18:34:39.535Z,58.17
2022-10-07T18:35:43.579Z,58.23
2022-10-07T18:36:55.876Z,58.23
2022-10-07T18:38:01.574Z,58.37
2022-10-07T18:39:10.232Z,58.43
2022-10-07T18:40:13.225Z,58.47
2022-10-07T18:41:17.839Z,58.49
2022-10-07T18:42:21.085Z,58.58
2022-10-07T18:43:24.250Z,58.63
2022-10-07T18:44:27.339Z,58.60
2022-10-07T18:45:30.357Z,58.71
2022-10-07T18:46:33.747Z,58.73
2022-10-07T18:47:36.829Z,58.86
2022-10-07T18:48:41.933Z,58.77
2022-10-07T18:49:45.104Z,59.07
2022-10-07T18:50:54.677Z,58.94
2022-10-07T18:51:57.848Z,59.13
2022-10-07T18:53:00.897Z,59.22
2022-10-07T18:54:04.152Z,59.27
2022-10-07T18:55:07.559Z,59.32
2022-10-07T18:56:13.133Z,59.36
2022-10-07T18:57:16.138Z,59.47
2022-10-07T18:58:19.338Z,59.56
2022-10-07T18:59:22.444Z,59.64
2022-10-07T19:00:25.804Z,59.78
2022-10-07T19:01:30.414Z,59.88
2022-10-07T19:02:33.498Z,59.90
2022-10-07T19:03:36.532Z,59.93
2022-10-07T19:04:39.675Z,60.10
2022-10-07T19:05:42.809Z,60.22
2022-10-07T19:06:46.532Z,60.14
2022-10-07T19:07:49.778Z,60.34
2022-10-07T19:08:54.935Z,60.32
2022-10-07T19:09:58.171Z,60.52
2022-10-07T19:11:12.150Z,60.52
2022-10-07T19:12:33.444Z,60.56
2022-10-07T19:13:50.043Z,60.78
2022-10-07T19:14:53.002Z,60.78
2022-10-07T19:15:56.627Z,60.72
2022-10-07T19:16:59.861Z,60.80
2022-10-07T19:18:02.870Z,60.87
2022-10-07T19:19:08.795Z,60.88
2022-10-07T19:20:11.858Z,60.89
2022-10-07T19:21:16.021Z,61.01
2022-10-07T19:22:19.480Z,60.96
2022-10-07T19:23:22.417Z,61.05
2022-10-07T19:24:45.256Z,61.17
2022-10-07T19:25:49.113Z,61.36
2022-10-07T19:26:54.020Z,61.44
2022-10-07T19:27:57.039Z,61.48
2022-10-07T19:29:00.294Z,61.50
2022-10-07T19:30:04.847Z,61.57
2022-10-07T19:31:16.809Z,61.70
2022-10-07T19:32:20.315Z,61.83
2022-10-07T19:33:24.077Z,61.83
2022-10-07T19:34:27.885Z,61.97
2022-10-07T19:35:33.114Z,61.88
2022-10-07T19:36:40.034Z,62.09
2022-10-07T19:37:43.309Z,62.14
2022-10-07T19:38:55.596Z,62.19
2022-10-07T19:39:58.786Z,62.23
2022-10-07T19:41:02.039Z,62.22
2022-10-07T19:42:05.133Z,62.42
2022-10-07T19:43:10.277Z,62.43
2022-10-07T19:44:14.390Z,62.43
2022-10-07T19:45:17.828Z,62.49
2022-10-07T19:46:22.609Z,62.57
2022-10-07T19:47:25.809Z,62.62
2022-10-07T19:48:32.355Z,62.73
2022-10-07T19:49:36.957Z,62.90
2022-10-07T19:50:40.279Z,63.00
2022-10-07T19:51:44.795Z,63.02
2022-10-07T19:52:47.885Z,63.01
2022-10-07T19:53:51.786Z,63.12
2022-10-07T19:54:54.956Z,63.17
2022-10-07T19:55:59.290Z,63.26
2022-10-07T19:57:02.369Z,63.36
2022-10-07T19:58:05.656Z,63.41
2022-10-07T19:59:11.186Z,63.41
2022-10-07T20:00:15.044Z,63.50
2022-10-07T20:01:21.389Z,63.59
2022-10-07T20:02:24.439Z,63.61
2022-10-07T20:03:27.470Z,63.60
2022-10-07T20:04:31.011Z,63.59
2022-10-07T20:05:34.097Z,63.81
2022-10-07T20:06:37.713Z,63.84
2022-10-07T20:07:40.930Z,63.83
2022-10-07T20:08:46.649Z,63.88
2022-10-07T20:09:49.759Z,64.00
2022-10-07T20:10:52.853Z,63.98
2022-10-07T20:11:56.060Z,64.07
2022-10-07T20:12:59.076Z,64.16
2022-10-07T20:14:04.759Z,64.25
2022-10-07T20:15:09.221Z,64.14
2022-10-07T20:16:26.135Z,64.37
2022-10-07T20:17:30.174Z,64.39
2022-10-07T20:18:34.522Z,64.45
2022-10-07T20:19:37.992Z,64.61
2022-10-07T20:20:41.109Z,64.59
2022-10-07T20:21:44.597Z,64.59
2022-10-07T20:22:49.491Z,64.65
2022-10-07T20:23:54.823Z,64.80
2022-10-07T20:24:57.907Z,64.78
2022-10-07T20:26:06.094Z,64.79
2022-10-07T20:27:09.081Z,65.05
2022-10-07T20:28:12.185Z,64.86
2022-10-07T20:29:16.587Z,65.11
2022-10-07T20:30:20.635Z,65.25
2022-10-07T20:31:26.477Z,65.25
2022-10-07T20:32:34.018Z,65.25
2022-10-07T20:33:42.800Z,65.44
2022-10-07T20:34:48.439Z,65.44
2022-10-07T20:35:52.919Z,65.44
2022-10-07T20:36:56.740Z,65.52
2022-10-07T20:37:59.752Z,65.67
2022-10-07T20:39:24.532Z,65.75
2022-10-07T20:40:45.924Z,65.85
2022-10-07T20:42:09.064Z,65.80
2022-10-07T20:43:12.755Z,65.94
2022-10-07T20:44:17.333Z,66.17
2022-10-07T20:45:23.003Z,66.12
2022-10-07T20:46:26.068Z,66.33
2022-10-07T20:47:32.306Z,66.34
2022-10-07T20:48:35.926Z,66.48
2022-10-07T20:49:41.579Z,66.45
2022-10-07T20:50:44.692Z,66.59
2022-10-07T20:51:51.929Z,66.41
2022-10-07T20:52:55.415Z,66.76
2022-10-07T20:53:58.517Z,66.70
2022-10-07T20:55:01.545Z,66.67
2022-10-07T20:56:04.806Z,66.59
2022-10-07T20:57:07.980Z,66.88
2022-10-07T20:58:10.970Z,67.13
2022-10-07T20:59:14.299Z,67.12
2022-10-07T21:00:18.720Z,66.99
2022-10-07T21:01:21.811Z,67.27
2022-10-07T21:02:25.620Z,67.05
2022-10-07T21:03:30.504Z,66.87
2022-10-07T21:04:33.868Z,67.06
2022-10-07T21:05:38.453Z,67.17
2022-10-07T21:06:42.777Z,67.15
2022-10-07T21:07:45.773Z,67.13
2022-10-07T21:08:53.520Z,67.39
2022-10-07T21:09:58.185Z,67.53
2022-10-07T21:11:02.440Z,67.51
2022-10-07T21:12:08.016Z,67.57
2022-10-07T21:13:11.023Z,67.52
2022-10-07T21:14:15.143Z,67.47
2022-10-07T21:15:19.346Z,67.70
2022-10-07T21:16:26.690Z,67.60
2022-10-07T21:17:30.152Z,67.87
2022-10-07T21:18:33.630Z,68.05
2022-10-07T21:19:36.887Z,68.00
2022-10-07T21:20:56.804Z,68.20
2022-10-07T21:22:00.334Z,67.88
2022-10-07T21:23:03.496Z,67.99
2022-10-07T21:24:07.342Z,68.22
2022-10-07T21:25:12.100Z,68.26
2022-10-07T21:26:15.672Z,68.36
2022-10-07T21:27:18.684Z,68.25
2022-10-07T21:28:21.933Z,68.31
2022-10-07T21:29:24.900Z,68.56
2022-10-07T21:30:29.642Z,68.61
2022-10-07T21:31:32.871Z,68.92
2022-10-07T21:32:35.910Z,68.57
2022-10-07T21:33:39.884Z,68.80
2022-10-07T21:34:43.680Z,68.80
2022-10-07T21:35:47.792Z,68.72
2022-10-07T21:36:53.900Z,68.80
2022-10-07T21:37:57.889Z,68.86
2022-10-07T21:39:01.005Z,68.82
2022-10-07T21:40:04.462Z,68.82
2022-10-07T21:41:17.085Z,69.23
2022-10-07T21:42:20.953Z,69.01
2022-10-07T21:43:24.059Z,69.27
2022-10-07T21:44:27.594Z,69.13
2022-10-07T21:45:31.061Z,69.13
2022-10-07T21:46:36.806Z,69.39
2022-10-07T21:47:40.011Z,69.46
2022-10-07T21:48:44.224Z,69.45
2022-10-07T21:49:47.302Z,69.61
2022-10-07T21:50:54.875Z,69.52
2022-10-07T21:51:58.907Z,69.56
2022-10-07T21:53:02.539Z,69.33
2022-10-07T21:54:06.074Z,69.70
2022-10-07T21:55:09.315Z,70.05
2022-10-07T21:56:13.565Z,69.72
2022-10-07T21:57:16.487Z,69.84
2022-10-07T21:59:00.626Z,69.90
2022-10-07T22:00:04.654Z,69.82
2022-10-07T22:01:26.761Z,69.94
2022-10-07T22:02:35.338Z,70.15
2022-10-07T22:03:38.778Z,70.00
2022-10-07T22:04:45.113Z,70.06
2022-10-07T22:05:51.941Z,70.28
2022-10-07T22:07:55.222Z,70.43
2022-10-07T22:09:01.324Z,70.71
2022-10-07T22:10:11.432Z,70.90
2022-10-07T22:11:19.786Z,70.87
2022-10-07T22:12:27.172Z,70.71
2022-10-07T22:13:34.246Z,70.97
2022-10-07T22:14:37.887Z,71.23
2022-10-07T22:15:40.880Z,70.94
2022-10-07T22:16:47.283Z,71.11
2022-10-07T22:17:50.779Z,71.04
2022-10-07T22:18:55.077Z,71.40
2022-10-07T22:19:58.917Z,71.37
2022-10-07T22:21:12.579Z,71.51
2022-10-07T22:22:15.959Z,71.59
2022-10-07T22:23:30.005Z,71.72
2022-10-07T22:24:34.260Z,71.59
2022-10-07T22:25:37.830Z,71.95
2022-10-07T22:26:51.323Z,71.71
2022-10-07T22:27:54.442Z,71.99
2022-10-07T22:28:57.571Z,71.87
2022-10-07T22:30:00.684Z,71.81
2022-10-07T22:31:07.134Z,71.92
2022-10-07T22:32:10.302Z,72.00
2022-10-07T22:33:15.300Z,72.36
2022-10-07T22:34:37.200Z,72.07
2022-10-07T22:35:40.328Z,72.05
2022-10-07T22:36:43.488Z,72.21
2022-10-07T22:37:46.446Z,72.06
2022-10-07T22:38:50.137Z,72.22
2022-10-07T22:39:53.161Z,71.87
2022-10-07T22:40:56.252Z,72.05
2022-10-07T22:42:01.180Z,72.16
2022-10-07T22:43:05.141Z,72.21
2022-10-07T22:44:08.162Z,72.05
2022-10-07T22:45:11.232Z,72.25
2022-10-07T22:46:26.950Z,72.17
2022-10-07T22:47:30.378Z,72.25
2022-10-07T22:48:34.291Z,72.43
2022-10-07T22:49:45.072Z,72.35
2022-10-07T22:50:52.937Z,72.37
2022-10-07T22:51:56.008Z,72.59
2022-10-07T22:52:59.151Z,72.72
2022-10-07T22:54:02.103Z,72.79
2022-10-07T22:55:07.105Z,72.41
2022-10-07T22:56:12.925Z,72.54
2022-10-07T22:57:16.710Z,72.70
2022-10-07T22:58:19.733Z,72.90
2022-10-07T22:59:22.844Z,72.55
2022-10-07T23:00:26.131Z,72.50
2022-10-07T23:01:31.342Z,73.01
2022-10-07T23:02:34.450Z,72.53
2022-10-07T23:03:39.752Z,72.63
2022-10-07T23:04:43.047Z,72.48
2022-10-07T23:05:49.379Z,72.85
2022-10-07T23:06:53.535Z,72.85
2022-10-07T23:07:56.638Z,72.62
2022-10-07T23:09:03.535Z,72.82
2022-10-07T23:10:07.493Z,73.12
2022-10-07T23:11:15.651Z,73.17
2022-10-07T23:12:18.594Z,72.95
2022-10-07T23:13:21.631Z,73.07
2022-10-07T23:14:24.870Z,73.16
2022-10-07T23:15:28.198Z,73.13
2022-10-07T23:16:33.967Z,73.37
2022-10-07T23:17:36.953Z,73.07
2022-10-07T23:18:42.698Z,73.39
2022-10-07T23:19:46.057Z,73.21
2022-10-07T23:20:57.738Z,73.06
2022-10-07T23:22:00.641Z,73.51
2022-10-07T23:23:04.511Z,73.41
2022-10-07T23:24:09.937Z,73.32
2022-10-07T23:25:13.419Z,73.39
2022-10-07T23:26:19.482Z,73.56
2022-10-07T23:27:23.108Z,73.43
2022-10-07T23:28:26.241Z,73.66
2022-10-07T23:29:30.056Z,73.62
2022-10-07T23:30:37.419Z,73.76
2022-10-07T23:31:40.527Z,73.28
2022-10-07T23:32:46.167Z,73.79
2022-10-07T23:33:52.050Z,73.68
2022-10-07T23:34:55.341Z,73.89
2022-10-07T23:35:58.916Z,73.71
2022-10-07T23:37:02.297Z,73.68
2022-10-07T23:38:05.402Z,73.80
2022-10-07T23:39:08.338Z,74.04
2022-10-07T23:40:11.432Z,73.98
2022-10-07T23:41:18.100Z,73.75
2022-10-07T23:42:21.030Z,74.06
2022-10-07T23:43:24.121Z,73.92
2022-10-07T23:44:27.145Z,73.90
2022-10-07T23:45:33.195Z,74.07
2022-10-07T23:46:36.344Z,73.83
2022-10-07T23:47:39.421Z,73.70
2022-10-07T23:48:42.815Z,74.29
2022-10-07T23:49:46.491Z,73.91
2022-10-07T23:50:55.142Z,73.84
2022-10-07T23:51:58.294Z,73.93
2022-10-07T23:53:01.215Z,73.95
2022-10-07T23:54:05.082Z,73.92
2022-10-07T23:55:10.362Z,74.13
2022-10-07T23:56:13.705Z,74.35
2022-10-07T23:57:16.734Z,74.12
2022-10-07T23:58:22.917Z,74.24
2022-10-07T23:59:26.003Z,74.23
